sensor_id;sensor_type;location;lat;lon;timestamp;P1;durP1;ratioP1;P2;durP2;ratioP2
48006;SDS011;33771;48.180;11.400;2022-07-23T00:00:54;8.82;;;7.03;;
48006;SDS011;33771;48.180;11.400;2022-07-23T00:03:20;9.18;;;7.30;;
48006;SDS011;33771;48.180;11.400;2022-07-23T00:05:45;8.60;;;7.28;;
48006;SDS011;33771;48.180;11.400;2022-07-23T00:08:11;12.05;;;7.97;;
48006;SDS011;33771;48.180;11.400;2022-07-23T00:10:37;11.63;;;7.07;;
48006;SDS011;33771;48.180;11.400;2022-07-23T00:13:03;9.52;;;7.47;;
48006;SDS011;33771;48.180;11.400;2022-07-23T00:15:28;9.88;;;7.22;;
48006;SDS011;33771;48.180;11.400;2022-07-23T00:17:54;9.30;;;7.90;;
48006;SDS011;33771;48.180;11.400;2022-07-23T00:20:20;8.35;;;7.55;;
48006;SDS011;33771;48.180;11.400;2022-07-23T00:22:49;8.18;;;6.97;;
48006;SDS011;33771;48.180;11.400;2022-07-23T00:25:17;8.73;;;7.47;;
48006;SDS011;33771;48.180;11.400;2022-07-23T00:27:42;8.50;;;6.68;;
48006;SDS011;33771;48.180;11.400;2022-07-23T00:30:08;10.05;;;7.60;;
48006;SDS011;33771;48.180;11.400;2022-07-23T00:32:54;11.23;;;7.22;;
48006;SDS011;33771;48.180;11.400;2022-07-23T00:35:22;9.25;;;7.57;;
48006;SDS011;33771;48.180;11.400;2022-07-23T00:37:51;8.32;;;6.88;;
48006;SDS011;33771;48.180;11.400;2022-07-23T00:40:18;8.02;;;7.22;;
48006;SDS011;33771;48.180;11.400;2022-07-23T00:42:44;9.18;;;7.15;;
48006;SDS011;33771;48.180;11.400;2022-07-23T00:45:10;12.43;;;7.55;;
48006;SDS011;33771;48.180;11.400;2022-07-23T00:47:35;7.65;;;6.88;;
48006;SDS011;33771;48.180;11.400;2022-07-23T00:50:02;9.38;;;7.32;;
48006;SDS011;33771;48.180;11.400;2022-07-23T00:52:29;8.60;;;6.97;;
48006;SDS011;33771;48.180;11.400;2022-07-23T00:54:54;8.20;;;7.40;;
48006;SDS011;33771;48.180;11.400;2022-07-23T00:57:20;10.88;;;7.53;;
48006;SDS011;33771;48.180;11.400;2022-07-23T00:59:46;9.65;;;7.47;;
48006;SDS011;33771;48.180;11.400;2022-07-23T01:02:11;7.78;;;6.68;;
48006;SDS011;33771;48.180;11.400;2022-07-23T01:04:37;12.15;;;8.20;;
48006;SDS011;33771;48.180;11.400;2022-07-23T01:07:03;9.73;;;8.43;;
48006;SDS011;33771;48.180;11.400;2022-07-23T01:09:29;13.77;;;8.82;;
48006;SDS011;33771;48.180;11.400;2022-07-23T01:11:55;11.98;;;8.95;;
48006;SDS011;33771;48.180;11.400;2022-07-23T01:14:22;14.30;;;8.02;;
48006;SDS011;33771;48.180;11.400;2022-07-23T01:16:48;29.73;;;8.05;;
48006;SDS011;33771;48.180;11.400;2022-07-23T01:19:14;15.20;;;7.70;;
48006;SDS011;33771;48.180;11.400;2022-07-23T01:21:41;15.25;;;7.80;;
48006;SDS011;33771;48.180;11.400;2022-07-23T01:24:08;18.38;;;8.70;;
48006;SDS011;33771;48.180;11.400;2022-07-23T01:26:34;23.60;;;8.88;;
48006;SDS011;33771;48.180;11.400;2022-07-23T01:29:01;21.20;;;10.23;;
48006;SDS011;33771;48.180;11.400;2022-07-23T01:31:27;15.02;;;9.85;;
48006;SDS011;33771;48.180;11.400;2022-07-23T01:33:52;15.07;;;9.35;;
48006;SDS011;33771;48.180;11.400;2022-07-23T01:36:18;14.75;;;8.95;;
48006;SDS011;33771;48.180;11.400;2022-07-23T01:38:44;14.98;;;9.38;;
48006;SDS011;33771;48.180;11.400;2022-07-23T01:41:09;15.45;;;10.43;;
48006;SDS011;33771;48.180;11.400;2022-07-23T01:43:35;15.82;;;9.98;;
48006;SDS011;33771;48.180;11.400;2022-07-23T01:46:01;15.55;;;10.52;;
48006;SDS011;33771;48.180;11.400;2022-07-23T01:48:26;15.23;;;11.23;;
48006;SDS011;33771;48.180;11.400;2022-07-23T01:50:52;15.85;;;10.77;;
48006;SDS011;33771;48.180;11.400;2022-07-23T01:53:17;15.80;;;11.15;;
48006;SDS011;33771;48.180;11.400;2022-07-23T01:55:43;14.40;;;9.68;;
48006;SDS011;33771;48.180;11.400;2022-07-23T01:58:09;16.73;;;10.10;;
48006;SDS011;33771;48.180;11.400;2022-07-23T02:00:35;13.98;;;10.07;;
48006;SDS011;33771;48.180;11.400;2022-07-23T02:03:00;14.50;;;10.32;;
48006;SDS011;33771;48.180;11.400;2022-07-23T02:05:26;14.60;;;10.35;;
48006;SDS011;33771;48.180;11.400;2022-07-23T02:07:53;14.95;;;11.20;;
48006;SDS011;33771;48.180;11.400;2022-07-23T02:10:19;13.23;;;10.43;;
48006;SDS011;33771;48.180;11.400;2022-07-23T02:12:45;13.90;;;9.75;;
48006;SDS011;33771;48.180;11.400;2022-07-23T02:15:11;13.25;;;9.45;;
48006;SDS011;33771;48.180;11.400;2022-07-23T02:17:37;14.77;;;10.68;;
48006;SDS011;33771;48.180;11.400;2022-07-23T02:20:03;15.15;;;10.90;;
48006;SDS011;33771;48.180;11.400;2022-07-23T02:22:29;15.23;;;9.65;;
48006;SDS011;33771;48.180;11.400;2022-07-23T02:24:55;14.60;;;9.25;;
48006;SDS011;33771;48.180;11.400;2022-07-23T02:27:21;11.95;;;8.60;;
48006;SDS011;33771;48.180;11.400;2022-07-23T02:29:46;10.65;;;8.02;;
48006;SDS011;33771;48.180;11.400;2022-07-23T02:32:12;11.05;;;7.90;;
48006;SDS011;33771;48.180;11.400;2022-07-23T02:34:38;11.18;;;7.28;;
48006;SDS011;33771;48.180;11.400;2022-07-23T02:37:03;10.75;;;7.18;;
48006;SDS011;33771;48.180;11.400;2022-07-23T02:39:29;11.57;;;6.57;;
48006;SDS011;33771;48.180;11.400;2022-07-23T02:41:54;10.18;;;7.43;;
48006;SDS011;33771;48.180;11.400;2022-07-23T02:44:20;12.70;;;7.35;;
48006;SDS011;33771;48.180;11.400;2022-07-23T02:46:46;9.25;;;7.82;;
48006;SDS011;33771;48.180;11.400;2022-07-23T02:49:11;14.45;;;7.63;;
48006;SDS011;33771;48.180;11.400;2022-07-23T02:51:37;8.75;;;7.35;;
48006;SDS011;33771;48.180;11.400;2022-07-23T02:54:02;10.93;;;8.05;;
48006;SDS011;33771;48.180;11.400;2022-07-23T02:56:28;10.10;;;7.80;;
48006;SDS011;33771;48.180;11.400;2022-07-23T02:58:54;11.00;;;7.95;;
48006;SDS011;33771;48.180;11.400;2022-07-23T03:01:19;11.95;;;7.80;;
48006;SDS011;33771;48.180;11.400;2022-07-23T03:03:45;9.60;;;7.32;;
48006;SDS011;33771;48.180;11.400;2022-07-23T03:06:10;9.05;;;6.40;;
48006;SDS011;33771;48.180;11.400;2022-07-23T03:08:36;11.35;;;6.75;;
48006;SDS011;33771;48.180;11.400;2022-07-23T03:11:02;8.07;;;6.82;;
48006;SDS011;33771;48.180;11.400;2022-07-23T03:13:28;7.60;;;6.43;;
48006;SDS011;33771;48.180;11.400;2022-07-23T03:15:54;10.10;;;6.50;;
48006;SDS011;33771;48.180;11.400;2022-07-23T03:18:20;14.65;;;6.00;;
48006;SDS011;33771;48.180;11.400;2022-07-23T03:20:45;8.68;;;6.70;;
48006;SDS011;33771;48.180;11.400;2022-07-23T03:23:11;6.88;;;5.65;;
48006;SDS011;33771;48.180;11.400;2022-07-23T03:25:36;7.57;;;5.30;;
48006;SDS011;33771;48.180;11.400;2022-07-23T03:28:02;8.55;;;5.75;;
48006;SDS011;33771;48.180;11.400;2022-07-23T03:30:27;6.07;;;5.07;;
48006;SDS011;33771;48.180;11.400;2022-07-23T03:32:53;6.82;;;4.68;;
48006;SDS011;33771;48.180;11.400;2022-07-23T03:35:18;7.63;;;5.78;;
48006;SDS011;33771;48.180;11.400;2022-07-23T03:37:44;7.28;;;5.22;;
48006;SDS011;33771;48.180;11.400;2022-07-23T03:40:10;8.23;;;5.85;;
48006;SDS011;33771;48.180;11.400;2022-07-23T03:42:36;6.95;;;5.72;;
48006;SDS011;33771;48.180;11.400;2022-07-23T03:45:02;7.35;;;5.90;;
48006;SDS011;33771;48.180;11.400;2022-07-23T03:47:28;6.15;;;5.53;;
48006;SDS011;33771;48.180;11.400;2022-07-23T03:49:54;9.23;;;5.75;;
48006;SDS011;33771;48.180;11.400;2022-07-23T03:52:19;9.60;;;5.47;;
48006;SDS011;33771;48.180;11.400;2022-07-23T03:54:45;9.45;;;5.93;;
48006;SDS011;33771;48.180;11.400;2022-07-23T03:57:10;7.72;;;5.78;;
48006;SDS011;33771;48.180;11.400;2022-07-23T03:59:36;8.25;;;5.35;;
48006;SDS011;33771;48.180;11.400;2022-07-23T04:02:01;8.77;;;6.32;;
48006;SDS011;33771;48.180;11.400;2022-07-23T04:04:27;7.00;;;6.05;;
48006;SDS011;33771;48.180;11.400;2022-07-23T04:06:52;7.13;;;5.38;;
48006;SDS011;33771;48.180;11.400;2022-07-23T04:09:18;7.05;;;6.18;;
48006;SDS011;33771;48.180;11.400;2022-07-23T04:11:43;6.88;;;5.88;;
48006;SDS011;33771;48.180;11.400;2022-07-23T04:14:09;7.30;;;5.97;;
48006;SDS011;33771;48.180;11.400;2022-07-23T04:16:34;8.85;;;6.07;;
48006;SDS011;33771;48.180;11.400;2022-07-23T04:19:00;7.53;;;6.43;;
48006;SDS011;33771;48.180;11.400;2022-07-23T04:21:26;6.82;;;6.05;;
48006;SDS011;33771;48.180;11.400;2022-07-23T04:23:51;7.35;;;6.53;;
48006;SDS011;33771;48.180;11.400;2022-07-23T04:26:17;8.35;;;6.15;;
48006;SDS011;33771;48.180;11.400;2022-07-23T04:28:42;6.60;;;5.93;;
48006;SDS011;33771;48.180;11.400;2022-07-23T04:31:08;8.63;;;6.35;;
48006;SDS011;33771;48.180;11.400;2022-07-23T04:33:33;6.93;;;6.22;;
48006;SDS011;33771;48.180;11.400;2022-07-23T04:35:59;9.88;;;6.47;;
48006;SDS011;33771;48.180;11.400;2022-07-23T04:38:25;9.40;;;6.18;;
48006;SDS011;33771;48.180;11.400;2022-07-23T04:40:50;8.88;;;6.68;;
48006;SDS011;33771;48.180;11.400;2022-07-23T04:43:16;6.80;;;5.93;;
48006;SDS011;33771;48.180;11.400;2022-07-23T04:45:41;9.50;;;6.45;;
48006;SDS011;33771;48.180;11.400;2022-07-23T04:48:07;7.10;;;6.40;;
48006;SDS011;33771;48.180;11.400;2022-07-23T04:50:32;8.75;;;6.15;;
48006;SDS011;33771;48.180;11.400;2022-07-23T04:52:58;8.98;;;6.05;;
48006;SDS011;33771;48.180;11.400;2022-07-23T04:55:24;7.07;;;6.38;;
48006;SDS011;33771;48.180;11.400;2022-07-23T04:57:49;7.18;;;5.97;;
48006;SDS011;33771;48.180;11.400;2022-07-23T05:00:15;7.78;;;6.20;;
48006;SDS011;33771;48.180;11.400;2022-07-23T05:02:41;8.13;;;5.65;;
48006;SDS011;33771;48.180;11.400;2022-07-23T05:05:06;7.45;;;6.10;;
48006;SDS011;33771;48.180;11.400;2022-07-23T05:07:32;8.27;;;6.00;;
48006;SDS011;33771;48.180;11.400;2022-07-23T05:09:58;8.27;;;6.68;;
48006;SDS011;33771;48.180;11.400;2022-07-23T05:12:23;7.03;;;5.85;;
48006;SDS011;33771;48.180;11.400;2022-07-23T05:14:49;9.13;;;6.20;;
48006;SDS011;33771;48.180;11.400;2022-07-23T05:17:15;6.95;;;6.13;;
48006;SDS011;33771;48.180;11.400;2022-07-23T05:19:40;8.13;;;6.25;;
48006;SDS011;33771;48.180;11.400;2022-07-23T05:22:06;9.13;;;6.53;;
48006;SDS011;33771;48.180;11.400;2022-07-23T05:24:31;11.20;;;7.70;;
48006;SDS011;33771;48.180;11.400;2022-07-23T05:26:57;8.82;;;6.13;;
48006;SDS011;33771;48.180;11.400;2022-07-23T05:29:22;10.73;;;6.38;;
48006;SDS011;33771;48.180;11.400;2022-07-23T05:31:48;9.18;;;6.30;;
48006;SDS011;33771;48.180;11.400;2022-07-23T05:34:13;11.52;;;6.68;;
48006;SDS011;33771;48.180;11.400;2022-07-23T05:36:39;8.02;;;6.40;;
48006;SDS011;33771;48.180;11.400;2022-07-23T05:39:04;8.38;;;6.35;;
48006;SDS011;33771;48.180;11.400;2022-07-23T05:41:30;12.20;;;6.20;;
48006;SDS011;33771;48.180;11.400;2022-07-23T05:43:55;8.50;;;6.65;;
48006;SDS011;33771;48.180;11.400;2022-07-23T05:46:21;7.53;;;6.50;;
48006;SDS011;33771;48.180;11.400;2022-07-23T05:48:47;10.13;;;6.55;;
48006;SDS011;33771;48.180;11.400;2022-07-23T05:51:19;7.22;;;6.35;;
48006;SDS011;33771;48.180;11.400;2022-07-23T05:53:47;10.27;;;6.43;;
48006;SDS011;33771;48.180;11.400;2022-07-23T05:56:14;9.18;;;7.20;;
48006;SDS011;33771;48.180;11.400;2022-07-23T05:58:40;10.07;;;7.03;;
48006;SDS011;33771;48.180;11.400;2022-07-23T06:01:06;10.23;;;7.25;;
48006;SDS011;33771;48.180;11.400;2022-07-23T06:03:32;10.43;;;7.63;;
48006;SDS011;33771;48.180;11.400;2022-07-23T06:05:57;8.60;;;6.88;;
48006;SDS011;33771;48.180;11.400;2022-07-23T06:08:23;9.85;;;7.60;;
48006;SDS011;33771;48.180;11.400;2022-07-23T06:10:48;10.68;;;7.30;;
48006;SDS011;33771;48.180;11.400;2022-07-23T06:13:14;9.27;;;7.40;;
48006;SDS011;33771;48.180;11.400;2022-07-23T06:15:41;9.82;;;7.95;;
48006;SDS011;33771;48.180;11.400;2022-07-23T06:18:06;8.77;;;7.88;;
48006;SDS011;33771;48.180;11.400;2022-07-23T06:20:32;8.57;;;7.40;;
48006;SDS011;33771;48.180;11.400;2022-07-23T06:22:57;12.00;;;7.50;;
48006;SDS011;33771;48.180;11.400;2022-07-23T06:25:23;10.75;;;8.20;;
48006;SDS011;33771;48.180;11.400;2022-07-23T06:27:48;11.40;;;8.20;;
48006;SDS011;33771;48.180;11.400;2022-07-23T06:30:15;9.40;;;7.95;;
48006;SDS011;33771;48.180;11.400;2022-07-23T06:32:43;8.70;;;7.78;;
48006;SDS011;33771;48.180;11.400;2022-07-23T06:35:10;10.73;;;8.40;;
48006;SDS011;33771;48.180;11.400;2022-07-23T06:37:35;11.35;;;8.10;;
48006;SDS011;33771;48.180;11.400;2022-07-23T06:40:01;9.40;;;7.63;;
48006;SDS011;33771;48.180;11.400;2022-07-23T06:42:27;8.95;;;7.15;;
48006;SDS011;33771;48.180;11.400;2022-07-23T06:44:53;8.80;;;6.85;;
48006;SDS011;33771;48.180;11.400;2022-07-23T06:47:18;12.80;;;6.80;;
48006;SDS011;33771;48.180;11.400;2022-07-23T06:49:44;22.98;;;8.10;;
48006;SDS011;33771;48.180;11.400;2022-07-23T06:52:09;15.68;;;7.70;;
48006;SDS011;33771;48.180;11.400;2022-07-23T06:54:35;10.35;;;6.90;;
48006;SDS011;33771;48.180;11.400;2022-07-23T06:57:00;10.55;;;6.60;;
48006;SDS011;33771;48.180;11.400;2022-07-23T06:59:26;10.70;;;7.13;;
48006;SDS011;33771;48.180;11.400;2022-07-23T07:01:52;11.25;;;6.43;;
48006;SDS011;33771;48.180;11.400;2022-07-23T07:04:18;8.15;;;6.72;;
48006;SDS011;33771;48.180;11.400;2022-07-23T07:06:43;7.20;;;6.50;;
48006;SDS011;33771;48.180;11.400;2022-07-23T07:09:09;8.98;;;7.07;;
48006;SDS011;33771;48.180;11.400;2022-07-23T07:11:34;8.88;;;6.65;;
48006;SDS011;33771;48.180;11.400;2022-07-23T07:14:00;9.02;;;7.00;;
48006;SDS011;33771;48.180;11.400;2022-07-23T07:16:25;8.10;;;7.30;;
48006;SDS011;33771;48.180;11.400;2022-07-23T07:18:51;8.82;;;6.65;;
48006;SDS011;33771;48.180;11.400;2022-07-23T07:21:16;7.05;;;6.35;;
48006;SDS011;33771;48.180;11.400;2022-07-23T07:23:42;11.30;;;6.95;;
48006;SDS011;33771;48.180;11.400;2022-07-23T07:26:08;7.95;;;6.63;;
48006;SDS011;33771;48.180;11.400;2022-07-23T07:28:33;8.35;;;6.72;;
48006;SDS011;33771;48.180;11.400;2022-07-23T07:30:59;7.93;;;7.13;;
48006;SDS011;33771;48.180;11.400;2022-07-23T07:33:24;8.10;;;7.30;;
48006;SDS011;33771;48.180;11.400;2022-07-23T07:35:50;9.90;;;7.75;;
48006;SDS011;33771;48.180;11.400;2022-07-23T07:38:15;8.77;;;7.65;;
48006;SDS011;33771;48.180;11.400;2022-07-23T07:40:41;9.55;;;7.50;;
48006;SDS011;33771;48.180;11.400;2022-07-23T07:43:07;12.68;;;7.90;;
48006;SDS011;33771;48.180;11.400;2022-07-23T07:45:32;8.23;;;6.88;;
48006;SDS011;33771;48.180;11.400;2022-07-23T07:47:58;8.30;;;7.40;;
48006;SDS011;33771;48.180;11.400;2022-07-23T07:50:24;9.10;;;7.32;;
48006;SDS011;33771;48.180;11.400;2022-07-23T07:52:50;9.32;;;7.55;;
48006;SDS011;33771;48.180;11.400;2022-07-23T07:55:15;8.50;;;7.60;;
48006;SDS011;33771;48.180;11.400;2022-07-23T07:57:41;9.20;;;7.82;;
48006;SDS011;33771;48.180;11.400;2022-07-23T08:00:07;9.38;;;7.63;;
48006;SDS011;33771;48.180;11.400;2022-07-23T08:05:09;9.63;;;7.57;;
48006;SDS011;33771;48.180;11.400;2022-07-23T08:07:35;11.02;;;7.85;;
48006;SDS011;33771;48.180;11.400;2022-07-23T08:10:02;10.02;;;7.93;;
48006;SDS011;33771;48.180;11.400;2022-07-23T08:12:28;9.65;;;7.70;;
48006;SDS011;33771;48.180;11.400;2022-07-23T08:15:02;8.43;;;7.50;;
48006;SDS011;33771;48.180;11.400;2022-07-23T08:17:27;11.07;;;8.13;;
48006;SDS011;33771;48.180;11.400;2022-07-23T08:19:53;9.30;;;8.30;;
48006;SDS011;33771;48.180;11.400;2022-07-23T08:22:18;9.60;;;7.53;;
48006;SDS011;33771;48.180;11.400;2022-07-23T08:24:44;9.30;;;7.10;;
48006;SDS011;33771;48.180;11.400;2022-07-23T08:27:09;8.88;;;7.43;;
48006;SDS011;33771;48.180;11.400;2022-07-23T08:29:35;11.30;;;6.95;;
48006;SDS011;33771;48.180;11.400;2022-07-23T08:32:00;7.93;;;6.82;;
48006;SDS011;33771;48.180;11.400;2022-07-23T08:34:26;8.75;;;6.95;;
48006;SDS011;33771;48.180;11.400;2022-07-23T08:36:51;9.07;;;6.93;;
48006;SDS011;33771;48.180;11.400;2022-07-23T08:39:17;9.15;;;7.22;;
48006;SDS011;33771;48.180;11.400;2022-07-23T08:41:42;9.07;;;6.85;;
48006;SDS011;33771;48.180;11.400;2022-07-23T08:44:08;8.65;;;6.88;;
48006;SDS011;33771;48.180;11.400;2022-07-23T08:46:34;10.68;;;7.30;;
48006;SDS011;33771;48.180;11.400;2022-07-23T08:49:01;11.82;;;7.80;;
48006;SDS011;33771;48.180;11.400;2022-07-23T08:51:27;9.95;;;7.60;;
48006;SDS011;33771;48.180;11.400;2022-07-23T08:53:55;9.43;;;7.00;;
48006;SDS011;33771;48.180;11.400;2022-07-23T08:56:22;7.15;;;6.38;;
48006;SDS011;33771;48.180;11.400;2022-07-23T08:58:47;8.30;;;6.72;;
48006;SDS011;33771;48.180;11.400;2022-07-23T09:01:13;8.38;;;6.15;;
48006;SDS011;33771;48.180;11.400;2022-07-23T09:03:39;6.95;;;6.32;;
48006;SDS011;33771;48.180;11.400;2022-07-23T09:06:05;12.98;;;6.88;;
48006;SDS011;33771;48.180;11.400;2022-07-23T09:08:41;7.47;;;6.78;;
48006;SDS011;33771;48.180;11.400;2022-07-23T09:11:26;8.13;;;6.88;;
48006;SDS011;33771;48.180;11.400;2022-07-23T09:13:52;15.43;;;8.15;;
48006;SDS011;33771;48.180;11.400;2022-07-23T09:18:53;12.00;;;7.63;;
48006;SDS011;33771;48.180;11.400;2022-07-23T09:21:22;10.82;;;7.35;;
48006;SDS011;33771;48.180;11.400;2022-07-23T09:23:56;8.10;;;7.30;;
48006;SDS011;33771;48.180;11.400;2022-07-23T09:26:26;7.95;;;6.60;;
48006;SDS011;33771;48.180;11.400;2022-07-23T09:31:41;10.77;;;6.85;;
48006;SDS011;33771;48.180;11.400;2022-07-23T09:34:17;9.00;;;6.43;;
48006;SDS011;33771;48.180;11.400;2022-07-23T09:36:50;6.70;;;6.00;;
48006;SDS011;33771;48.180;11.400;2022-07-23T09:39:24;6.55;;;5.50;;
48006;SDS011;33771;48.180;11.400;2022-07-23T09:41:57;7.25;;;5.80;;
48006;SDS011;33771;48.180;11.400;2022-07-23T09:44:23;6.95;;;5.65;;
48006;SDS011;33771;48.180;11.400;2022-07-23T09:46:49;7.57;;;5.35;;
48006;SDS011;33771;48.180;11.400;2022-07-23T09:49:22;7.40;;;5.10;;
48006;SDS011;33771;48.180;11.400;2022-07-23T09:51:52;6.90;;;5.72;;
48006;SDS011;33771;48.180;11.400;2022-07-23T09:56:54;6.22;;;4.85;;
48006;SDS011;33771;48.180;11.400;2022-07-23T09:59:32;6.20;;;4.40;;
48006;SDS011;33771;48.180;11.400;2022-07-23T10:02:00;5.60;;;4.47;;
48006;SDS011;33771;48.180;11.400;2022-07-23T10:04:29;5.47;;;4.60;;
48006;SDS011;33771;48.180;11.400;2022-07-23T10:06:56;6.25;;;4.50;;
48006;SDS011;33771;48.180;11.400;2022-07-23T10:09:26;6.38;;;4.82;;
48006;SDS011;33771;48.180;11.400;2022-07-23T10:11:57;5.38;;;4.88;;
48006;SDS011;33771;48.180;11.400;2022-07-23T10:14:34;6.55;;;4.10;;
48006;SDS011;33771;48.180;11.400;2022-07-23T10:17:13;6.85;;;5.32;;
48006;SDS011;33771;48.180;11.400;2022-07-23T10:19:41;5.63;;;4.63;;
48006;SDS011;33771;48.180;11.400;2022-07-23T10:22:12;5.88;;;4.97;;
48006;SDS011;33771;48.180;11.400;2022-07-23T10:25:00;6.78;;;4.80;;
48006;SDS011;33771;48.180;11.400;2022-07-23T10:36:12;6.85;;;4.93;;
48006;SDS011;33771;48.180;11.400;2022-07-23T10:41:40;7.43;;;4.65;;
48006;SDS011;33771;48.180;11.400;2022-07-23T10:46:33;6.28;;;4.78;;
48006;SDS011;33771;48.180;11.400;2022-07-23T10:54:46;5.25;;;4.75;;
48006;SDS011;33771;48.180;11.400;2022-07-23T10:57:15;7.10;;;4.47;;
48006;SDS011;33771;48.180;11.400;2022-07-23T11:02:28;6.43;;;4.70;;
48006;SDS011;33771;48.180;11.400;2022-07-23T11:04:58;5.32;;;4.38;;
48006;SDS011;33771;48.180;11.400;2022-07-23T11:07:26;7.45;;;4.43;;
48006;SDS011;33771;48.180;11.400;2022-07-23T11:09:53;5.45;;;4.90;;
48006;SDS011;33771;48.180;11.400;2022-07-23T11:17:35;5.88;;;4.90;;
48006;SDS011;33771;48.180;11.400;2022-07-23T11:22:40;6.68;;;4.90;;
48006;SDS011;33771;48.180;11.400;2022-07-23T11:27:47;9.05;;;5.57;;
48006;SDS011;33771;48.180;11.400;2022-07-23T11:32:52;6.93;;;5.65;;
48006;SDS011;33771;48.180;11.400;2022-07-23T11:35:38;9.65;;;5.55;;
48006;SDS011;33771;48.180;11.400;2022-07-23T11:38:06;8.15;;;5.95;;
48006;SDS011;33771;48.180;11.400;2022-07-23T11:40:38;6.32;;;5.30;;
48006;SDS011;33771;48.180;11.400;2022-07-23T11:43:05;6.90;;;5.30;;
48006;SDS011;33771;48.180;11.400;2022-07-23T11:47:59;8.75;;;5.47;;
48006;SDS011;33771;48.180;11.400;2022-07-23T11:50:25;6.32;;;5.57;;
48006;SDS011;33771;48.180;11.400;2022-07-23T11:52:52;7.88;;;6.22;;
48006;SDS011;33771;48.180;11.400;2022-07-23T11:55:18;10.20;;;6.03;;
48006;SDS011;33771;48.180;11.400;2022-07-23T11:57:44;8.73;;;6.00;;
48006;SDS011;33771;48.180;11.400;2022-07-23T12:02:36;7.47;;;5.60;;
48006;SDS011;33771;48.180;11.400;2022-07-23T12:05:03;7.93;;;6.00;;
48006;SDS011;33771;48.180;11.400;2022-07-23T12:09:57;8.35;;;6.10;;
48006;SDS011;33771;48.180;11.400;2022-07-23T12:12:44;7.07;;;5.30;;
48006;SDS011;33771;48.180;11.400;2022-07-23T12:15:13;8.77;;;5.85;;
48006;SDS011;33771;48.180;11.400;2022-07-23T12:17:41;8.13;;;5.63;;
48006;SDS011;33771;48.180;11.400;2022-07-23T12:20:08;8.27;;;5.43;;
48006;SDS011;33771;48.180;11.400;2022-07-23T12:22:39;9.70;;;5.55;;
48006;SDS011;33771;48.180;11.400;2022-07-23T12:25:13;12.02;;;5.88;;
48006;SDS011;33771;48.180;11.400;2022-07-23T12:32:49;9.27;;;5.88;;
48006;SDS011;33771;48.180;11.400;2022-07-23T12:35:17;9.70;;;5.95;;
48006;SDS011;33771;48.180;11.400;2022-07-23T12:37:44;8.13;;;5.55;;
48006;SDS011;33771;48.180;11.400;2022-07-23T12:42:51;7.65;;;5.97;;
48006;SDS011;33771;48.180;11.400;2022-07-23T12:45:20;10.13;;;5.85;;
48006;SDS011;33771;48.180;11.400;2022-07-23T12:53:02;12.68;;;6.20;;
48006;SDS011;33771;48.180;11.400;2022-07-23T12:55:28;7.28;;;6.00;;
48006;SDS011;33771;48.180;11.400;2022-07-23T12:58:02;6.75;;;5.65;;
48006;SDS011;33771;48.180;11.400;2022-07-23T13:00:32;8.40;;;6.03;;
48006;SDS011;33771;48.180;11.400;2022-07-23T13:03:26;8.48;;;6.22;;
48006;SDS011;33771;48.180;11.400;2022-07-23T13:05:55;6.70;;;5.70;;
48006;SDS011;33771;48.180;11.400;2022-07-23T13:08:23;7.50;;;6.00;;
48006;SDS011;33771;48.180;11.400;2022-07-23T13:10:49;10.27;;;7.00;;
48006;SDS011;33771;48.180;11.400;2022-07-23T13:13:17;6.90;;;6.20;;
48006;SDS011;33771;48.180;11.400;2022-07-23T13:15:45;6.40;;;5.70;;
48006;SDS011;33771;48.180;11.400;2022-07-23T13:18:10;9.07;;;6.65;;
48006;SDS011;33771;48.180;11.400;2022-07-23T13:20:36;7.18;;;6.15;;
48006;SDS011;33771;48.180;11.400;2022-07-23T13:23:03;8.00;;;6.13;;
48006;SDS011;33771;48.180;11.400;2022-07-23T13:25:30;9.25;;;6.43;;
48006;SDS011;33771;48.180;11.400;2022-07-23T13:27:56;8.85;;;6.75;;
48006;SDS011;33771;48.180;11.400;2022-07-23T13:30:21;10.52;;;6.15;;
48006;SDS011;33771;48.180;11.400;2022-07-23T13:32:47;8.75;;;6.40;;
48006;SDS011;33771;48.180;11.400;2022-07-23T13:35:13;10.82;;;6.20;;
48006;SDS011;33771;48.180;11.400;2022-07-23T13:37:39;7.55;;;6.22;;
48006;SDS011;33771;48.180;11.400;2022-07-23T13:40:05;7.50;;;6.00;;
48006;SDS011;33771;48.180;11.400;2022-07-23T13:42:31;7.90;;;6.22;;
48006;SDS011;33771;48.180;11.400;2022-07-23T13:44:57;8.57;;;7.07;;
48006;SDS011;33771;48.180;11.400;2022-07-23T13:47:22;7.43;;;5.90;;
48006;SDS011;33771;48.180;11.400;2022-07-23T13:49:48;8.05;;;6.53;;
48006;SDS011;33771;48.180;11.400;2022-07-23T13:52:14;7.43;;;6.05;;
48006;SDS011;33771;48.180;11.400;2022-07-23T13:54:40;8.40;;;5.93;;
48006;SDS011;33771;48.180;11.400;2022-07-23T13:57:06;10.50;;;6.78;;
48006;SDS011;33771;48.180;11.400;2022-07-23T13:59:32;7.10;;;5.63;;
48006;SDS011;33771;48.180;11.400;2022-07-23T14:01:58;9.05;;;6.15;;
48006;SDS011;33771;48.180;11.400;2022-07-23T14:04:23;6.60;;;5.95;;
48006;SDS011;33771;48.180;11.400;2022-07-23T14:06:49;7.68;;;6.30;;
48006;SDS011;33771;48.180;11.400;2022-07-23T14:09:15;10.02;;;5.57;;
48006;SDS011;33771;48.180;11.400;2022-07-23T14:11:40;7.32;;;5.60;;
48006;SDS011;33771;48.180;11.400;2022-07-23T14:14:06;7.30;;;5.95;;
48006;SDS011;33771;48.180;11.400;2022-07-23T14:16:31;6.95;;;6.25;;
48006;SDS011;33771;48.180;11.400;2022-07-23T14:18:57;8.13;;;5.93;;
48006;SDS011;33771;48.180;11.400;2022-07-23T14:21:23;7.43;;;6.18;;
48006;SDS011;33771;48.180;11.400;2022-07-23T14:23:48;8.88;;;5.68;;
48006;SDS011;33771;48.180;11.400;2022-07-23T14:26:14;6.88;;;5.65;;
48006;SDS011;33771;48.180;11.400;2022-07-23T14:28:39;8.32;;;5.50;;
48006;SDS011;33771;48.180;11.400;2022-07-23T14:31:05;7.35;;;5.47;;
48006;SDS011;33771;48.180;11.400;2022-07-23T14:33:31;8.90;;;5.88;;
48006;SDS011;33771;48.180;11.400;2022-07-23T14:35:56;8.38;;;6.07;;
48006;SDS011;33771;48.180;11.400;2022-07-23T14:38:23;6.90;;;5.78;;
48006;SDS011;33771;48.180;11.400;2022-07-23T14:40:49;7.00;;;5.32;;
48006;SDS011;33771;48.180;11.400;2022-07-23T14:43:14;9.77;;;6.18;;
48006;SDS011;33771;48.180;11.400;2022-07-23T14:45:40;7.60;;;5.88;;
48006;SDS011;33771;48.180;11.400;2022-07-23T14:48:06;9.02;;;5.75;;
48006;SDS011;33771;48.180;11.400;2022-07-23T14:50:31;8.70;;;6.60;;
48006;SDS011;33771;48.180;11.400;2022-07-23T14:52:57;7.63;;;5.72;;
48006;SDS011;33771;48.180;11.400;2022-07-23T14:55:22;6.63;;;5.90;;
48006;SDS011;33771;48.180;11.400;2022-07-23T14:57:48;6.55;;;5.80;;
48006;SDS011;33771;48.180;11.400;2022-07-23T15:00:14;7.68;;;6.20;;
48006;SDS011;33771;48.180;11.400;2022-07-23T15:02:39;6.82;;;6.05;;
48006;SDS011;33771;48.180;11.400;2022-07-23T15:05:05;9.10;;;6.35;;
48006;SDS011;33771;48.180;11.400;2022-07-23T15:07:31;7.55;;;6.22;;
48006;SDS011;33771;48.180;11.400;2022-07-23T15:09:57;7.38;;;5.68;;
48006;SDS011;33771;48.180;11.400;2022-07-23T15:12:23;8.05;;;6.13;;
48006;SDS011;33771;48.180;11.400;2022-07-23T15:14:49;9.45;;;6.60;;
48006;SDS011;33771;48.180;11.400;2022-07-23T15:17:14;6.78;;;6.07;;
48006;SDS011;33771;48.180;11.400;2022-07-23T15:19:40;7.22;;;6.15;;
48006;SDS011;33771;48.180;11.400;2022-07-23T15:22:06;8.85;;;6.32;;
48006;SDS011;33771;48.180;11.400;2022-07-23T15:24:32;9.70;;;6.40;;
48006;SDS011;33771;48.180;11.400;2022-07-23T15:26:57;8.05;;;6.78;;
48006;SDS011;33771;48.180;11.400;2022-07-23T15:29:23;8.48;;;6.40;;
48006;SDS011;33771;48.180;11.400;2022-07-23T15:31:49;8.18;;;6.57;;
48006;SDS011;33771;48.180;11.400;2022-07-23T15:34:14;7.35;;;6.35;;